Time;durP1;ratioP1;P1;durP2;ratioP2;P2;SDS_P1;SDS_P2;PMS_P1;PMS_P2;Temp;Humidity;BMP_temperature;BMP_pressure;BME280_temperature;BME280_humidity;BME280_pressure;Samples;Min_cycle;Max_cycle;Signal;HPM_P1;HPM_P2
2022/04/28 00:53:14;;;;;;;16.27;2.50;;;;;;;;;;5020606;28;20077;-88
2022/04/28 00:55:59;;;;;;;13.80;2.13;;;;;;;;;;5015993;28;20057;-88
2022/04/28 00:58:25;;;;;;;10.68;2.08;;;;;;;;;;5035022;28;20037;-88
2022/04/28 01:00:55;;;;;;;9.23;2.50;;;;;;;;;;5017681;28;20151;-88
2022/04/28 01:03:30;;;;;;;12.07;2.22;;;;;;;;;;5017354;28;20025;-88
2022/04/28 01:06:10;;;;;;;15.05;2.78;;;;;;;;;;4999049;28;20034;-88
2022/04/28 01:08:52;;;;;;;11.27;1.85;;;;;;;;;;5007898;28;20026;-89
2022/04/28 01:11:19;;;;;;;7.65;1.38;;;;;;;;;;5014664;28;20033;-88
2022/04/28 01:13:46;;;;;;;10.20;2.00;;;;;;;;;;5010327;28;20109;-88
2022/04/28 01:16:13;;;;;;;9.40;2.20;;;;;;;;;;5014054;28;20046;-88
2022/04/28 01:18:40;;;;;;;9.75;1.90;;;;;;;;;;5032036;28;20079;-90
2022/04/28 01:21:13;;;;;;;9.77;2.53;;;;;;;;;;5012786;28;20083;-88
2022/04/28 01:23:40;;;;;;;15.50;2.17;;;;;;;;;;5020131;28;20049;-89
2022/04/28 01:26:06;;;;;;;11.55;2.22;;;;;;;;;;5010054;28;20056;-88
2022/04/28 01:28:34;;;;;;;9.35;1.98;;;;;;;;;;5019522;28;20102;-87
2022/04/28 01:31:08;;;;;;;10.35;1.80;;;;;;;;;;5006466;28;20048;-89
2022/04/28 01:33:36;;;;;;;13.07;1.20;;;;;;;;;;5014753;28;20037;-88
2022/04/28 01:36:03;;;;;;;8.60;1.67;;;;;;;;;;5016094;28;20041;-87
2022/04/28 01:38:29;;;;;;;14.40;1.88;;;;;;;;;;5012926;28;20112;-87
2022/04/28 01:40:56;;;;;;;13.93;2.03;;;;;;;;;;5029805;28;20396;-88
2022/04/28 01:43:32;;;;;;;8.98;1.50;;;;;;;;;;5015225;28;20029;-88
2022/04/28 01:45:59;;;;;;;10.90;1.70;;;;;;;;;;5030328;28;20029;-88
2022/04/28 01:48:36;;;;;;;11.35;1.95;;;;;;;;;;5012738;28;20045;-89
2022/04/28 01:56:39;;;;;;;7.97;1.73;;;;;;;;;;5028490;28;20083;-89
2022/04/28 01:59:05;;;;;;;12.05;1.73;;;;;;;;;;5005180;28;20164;-91
2022/04/28 02:01:38;;;;;;;5.20;1.38;;;;;;;;;;5026452;28;20038;-91
2022/04/28 02:04:04;;;;;;;14.95;1.35;;;;;;;;;;5017040;28;20128;-90
2022/04/28 02:06:37;;;;;;;13.30;1.95;;;;;;;;;;5025862;28;20029;-90
2022/04/28 02:09:03;;;;;;;11.77;1.58;;;;;;;;;;5019853;28;20720;-91
2022/04/28 02:11:33;;;;;;;5.93;1.23;;;;;;;;;;5025017;28;20038;-91
2022/04/28 02:13:59;;;;;;;9.32;1.35;;;;;;;;;;5016394;28;20098;-91
2022/04/28 02:16:28;;;;;;;10.30;1.50;;;;;;;;;;5014976;28;20507;-90
2022/04/28 02:18:55;;;;;;;8.38;1.75;;;;;;;;;;5027308;28;20033;-90
2022/04/28 02:21:27;;;;;;;11.18;1.25;;;;;;;;;;5022321;28;20041;-90
2022/04/28 02:23:53;;;;;;;6.72;1.25;;;;;;;;;;5003830;28;20033;-91
2022/04/28 02:26:22;;;;;;;7.07;1.55;;;;;;;;;;5024518;28;20044;-90
2022/04/28 02:28:52;;;;;;;9.02;1.38;;;;;;;;;;5011533;28;20041;-91
2022/04/28 02:31:18;;;;;;;7.47;1.48;;;;;;;;;;5011331;28;20034;-91
2022/04/28 02:33:44;;;;;;;5.30;1.48;;;;;;;;;;5015164;28;20039;-90
2022/04/28 02:36:12;;;;;;;11.20;1.80;;;;;;;;;;4998893;28;20431;-90
2022/04/28 02:38:39;;;;;;;8.88;1.52;;;;;;;;;;5011727;28;20033;-90
2022/04/28 02:41:05;;;;;;;9.80;1.33;;;;;;;;;;5025029;28;20512;-90
2022/04/28 02:43:32;;;;;;;9.63;1.52;;;;;;;;;;5010786;28;20538;-91
2022/04/28 02:45:58;;;;;;;7.65;1.17;;;;;;;;;;5011669;28;20397;-91
2022/04/28 02:48:25;;;;;;;8.73;1.50;;;;;;;;;;5012371;28;20550;-91
2022/04/28 02:50:52;;;;;;;9.98;1.92;;;;;;;;;;5011387;28;20025;-90
2022/04/28 02:53:19;;;;;;;10.45;1.60;;;;;;;;;;5024594;28;20037;-90
2022/04/28 02:55:45;;;;;;;11.27;2.00;;;;;;;;;;5024870;28;20481;-91
2022/04/28 02:58:14;;;;;;;14.88;2.40;;;;;;;;;;5029400;28;20556;-91
2022/04/28 03:00:40;;;;;;;9.95;1.45;;;;;;;;;;5017466;28;20034;-90
2022/04/28 03:03:07;;;;;;;9.25;1.30;;;;;;;;;;5012744;28;20038;-91
2022/04/28 03:10:46;;;;;;;14.55;2.08;;;;;;;;;;5009657;28;20049;-90
2022/04/28 03:11:06;;;;;;;7.35;1.15;;;;;;;;;;5031940;28;20531;-91
2022/04/28 03:13:50;;;;;;;7.75;1.13;;;;;;;;;;5013223;28;20420;-93
2022/04/28 03:16:17;;;;;;;7.38;1.33;;;;;;;;;;5014769;28;20182;-92
2022/04/28 03:18:49;;;;;;;9.20;1.13;;;;;;;;;;5012921;28;20507;-90
2022/04/28 03:21:15;;;;;;;10.02;1.48;;;;;;;;;;5003792;28;20536;-91
2022/04/28 03:23:42;;;;;;;9.45;1.65;;;;;;;;;;5015852;28;20168;-89
2022/04/28 03:26:11;;;;;;;11.68;1.60;;;;;;;;;;5015755;28;20489;-92
2022/04/28 03:28:38;;;;;;;11.45;1.50;;;;;;;;;;5033080;28;20036;-92
2022/04/28 03:31:04;;;;;;;9.27;1.55;;;;;;;;;;5015365;28;20037;-89
2022/04/28 03:33:41;;;;;;;10.32;1.60;;;;;;;;;;5031631;28;20091;-88
2022/04/28 03:38:52;;;;;;;15.18;2.53;;;;;;;;;;5036858;28;20453;-89
2022/04/28 03:41:19;;;;;;;5.78;1.25;;;;;;;;;;5035256;28;20392;-91
2022/04/28 03:43:45;;;;;;;9.18;2.00;;;;;;;;;;5031919;28;20052;-89
2022/04/28 03:46:12;;;;;;;13.23;1.77;;;;;;;;;;5035020;28;20029;-91
2022/04/28 03:48:42;;;;;;;15.20;1.85;;;;;;;;;;5034709;28;20059;-90
2022/04/28 03:51:08;;;;;;;9.55;1.00;;;;;;;;;;5034969;28;20041;-90
2022/04/28 03:53:35;;;;;;;11.95;2.00;;;;;;;;;;5017923;28;20536;-91
2022/04/28 03:56:02;;;;;;;12.43;1.40;;;;;;;;;;5034697;28;20397;-89
2022/04/28 03:58:28;;;;;;;14.50;2.33;;;;;;;;;;5034778;28;20062;-91
2022/04/28 04:00:54;;;;;;;11.63;1.70;;;;;;;;;;5034916;28;20439;-92
2022/04/28 04:03:21;;;;;;;12.52;1.60;;;;;;;;;;5035263;28;20033;-91
2022/04/28 04:05:57;;;;;;;10.13;1.30;;;;;;;;;;5031853;28;20042;-91
2022/04/28 04:08:24;;;;;;;11.50;1.70;;;;;;;;;;5035449;28;20476;-91
2022/04/28 04:10:50;;;;;;;15.95;1.85;;;;;;;;;;5035209;28;20033;-92
2022/04/28 04:16:18;;;;;;;10.57;1.75;;;;;;;;;;5031154;28;20029;-93
2022/04/28 04:18:44;;;;;;;7.85;1.65;;;;;;;;;;5033140;28;20030;-92
2022/04/28 04:21:29;;;;;;;9.48;1.45;;;;;;;;;;5029995;28;20030;-92
2022/04/28 04:23:55;;;;;;;9.73;1.30;;;;;;;;;;5023211;28;20067;-92
2022/04/28 04:26:21;;;;;;;6.72;1.23;;;;;;;;;;5015112;28;20038;-90
2022/04/28 04:28:48;;;;;;;13.32;1.30;;;;;;;;;;5018959;28;20052;-91
2022/04/28 04:33:59;;;;;;;10.90;1.35;;;;;;;;;;5036102;28;20060;-92
2022/04/28 04:36:25;;;;;;;3.97;1.00;;;;;;;;;;5034348;28;21698;-92
2022/04/28 04:38:51;;;;;;;7.45;1.40;;;;;;;;;;5032923;28;20472;-91
2022/04/28 04:41:18;;;;;;;5.95;1.00;;;;;;;;;;5015232;28;20041;-92
2022/04/28 04:43:53;;;;;;;10.95;1.77;;;;;;;;;;5024678;28;20488;-94
2022/04/28 04:46:20;;;;;;;13.18;1.48;;;;;;;;;;5036040;28;20025;-91
2022/04/28 04:48:46;;;;;;;6.85;1.27;;;;;;;;;;5019794;28;20136;-90
2022/04/28 04:51:16;;;;;;;12.35;1.38;;;;;;;;;;5019908;28;20072;-90
2022/04/28 04:53:55;;;;;;;8.82;1.27;;;;;;;;;;5022692;28;20556;-91
2022/04/28 04:56:34;;;;;;;12.70;1.33;;;;;;;;;;5015311;28;20041;-92
2022/04/28 04:59:00;;;;;;;4.82;0.93;;;;;;;;;;5017536;28;20033;-93
2022/04/28 05:01:32;;;;;;;9.95;1.20;;;;;;;;;;5010482;28;20057;-92
2022/04/28 05:03:58;;;;;;;14.07;2.00;;;;;;;;;;5017622;28;20068;-92
2022/04/28 05:06:24;;;;;;;10.18;1.52;;;;;;;;;;5035013;28;20033;-92
2022/04/28 05:09:18;;;;;;;12.55;1.48;;;;;;;;;;5023358;28;20085;-89
2022/04/28 05:11:45;;;;;;;11.07;1.33;;;;;;;;;;5014834;28;20029;-92
2022/04/28 05:14:13;;;;;;;11.68;1.48;;;;;;;;;;5033166;28;20038;-93
2022/04/28 05:16:40;;;;;;;7.25;1.30;;;;;;;;;;5015523;28;20041;-93
2022/04/28 05:19:06;;;;;;;10.63;1.40;;;;;;;;;;5017386;28;20033;-94
2022/04/28 05:22:05;;;;;;;6.50;1.30;;;;;;;;;;5027178;28;20041;-92
2022/04/28 05:24:31;;;;;;;6.40;0.95;;;;;;;;;;5016159;28;20431;-93
2022/04/28 05:26:58;;;;;;;6.20;0.80;;;;;;;;;;5034423;28;20148;-93
2022/04/28 05:29:25;;;;;;;7.07;0.98;;;;;;;;;;5033953;28;20032;-92
2022/04/28 05:31:52;;;;;;;8.25;1.10;;;;;;;;;;5030861;28;20042;-94
2022/04/28 05:34:18;;;;;;;11.88;1.40;;;;;;;;;;5006222;28;20088;-93
2022/04/28 05:36:45;;;;;;;6.82;0.90;;;;;;;;;;5023623;28;20103;-93
2022/04/28 05:39:12;;;;;;;10.18;1.52;;;;;;;;;;5017567;28;20030;-92
2022/04/28 05:41:39;;;;;;;7.53;1.52;;;;;;;;;;5016636;28;20503;-93
2022/04/28 05:46:55;;;;;;;8.23;1.42;;;;;;;;;;5029997;28;20122;-93
2022/04/28 05:49:25;;;;;;;8.45;1.10;;;;;;;;;;5010770;28;20033;-93
2022/04/28 05:51:52;;;;;;;16.42;1.48;;;;;;;;;;5006650;28;20124;-94
2022/04/28 05:54:19;;;;;;;12.75;2.88;;;;;;;;;;5032846;28;20476;-93
2022/04/28 05:56:47;;;;;;;6.72;1.10;;;;;;;;;;5017129;28;20098;-91
2022/04/28 05:59:14;;;;;;;10.00;0.95;;;;;;;;;;5015274;28;20025;-92
2022/04/28 06:01:41;;;;;;;7.35;1.10;;;;;;;;;;4997744;28;20045;-93
2022/04/28 06:04:08;;;;;;;9.60;1.25;;;;;;;;;;5012294;28;20033;-90
2022/04/28 06:06:35;;;;;;;10.68;0.70;;;;;;;;;;5009528;28;20045;-93
2022/04/28 06:09:03;;;;;;;9.15;1.00;;;;;;;;;;5017159;28;20044;-92
2022/04/28 06:11:30;;;;;;;15.90;1.55;;;;;;;;;;5013874;28;20659;-92
2022/04/28 06:14:10;;;;;;;10.65;0.82;;;;;;;;;;5006258;28;20069;-92
2022/04/28 06:16:36;;;;;;;15.13;1.63;;;;;;;;;;5017215;28;20040;-93
2022/04/28 06:19:03;;;;;;;9.50;1.25;;;;;;;;;;5029784;28;20037;-92
2022/04/28 06:21:46;;;;;;;8.70;1.08;;;;;;;;;;5016685;28;20120;-93
2022/04/28 06:24:13;;;;;;;6.95;1.17;;;;;;;;;;5012688;28;20527;-92
2022/04/28 06:26:55;;;;;;;9.43;1.10;;;;;;;;;;5011519;28;20445;-91
2022/04/28 06:29:21;;;;;;;6.30;1.00;;;;;;;;;;5007943;28;20049;-93
2022/04/28 06:32:12;;;;;;;9.77;1.33;;;;;;;;;;5015315;28;20373;-94
2022/04/28 06:34:38;;;;;;;10.73;1.42;;;;;;;;;;5009214;28;20040;-93
2022/04/28 06:37:16;;;;;;;6.68;0.80;;;;;;;;;;5011197;28;20030;-93
2022/04/28 06:39:42;;;;;;;9.50;0.50;;;;;;;;;;5009394;28;20121;-94
2022/04/28 06:42:12;;;;;;;8.73;1.10;;;;;;;;;;5014580;28;20045;-93
2022/04/28 06:44:39;;;;;;;10.60;1.35;;;;;;;;;;5016149;28;20140;-93
2022/04/28 06:47:10;;;;;;;9.93;1.00;;;;;;;;;;5016069;28;20206;-91
2022/04/28 06:49:37;;;;;;;5.53;1.02;;;;;;;;;;5019381;28;20369;-91
2022/04/28 06:52:03;;;;;;;14.20;1.35;;;;;;;;;;5015325;28;20042;-93
2022/04/28 06:54:30;;;;;;;10.13;0.70;;;;;;;;;;5014739;28;20034;-93
2022/04/28 07:35:35;;;;;;;8.85;1.00;;;;;;;;;;5031351;28;20099;-94
2022/04/28 07:41:05;;;;;;;9.73;0.80;;;;;;;;;;5031915;28;20052;-92
2022/04/28 07:43:41;;;;;;;5.20;0.77;;;;;;;;;;5015164;28;20029;-93
2022/04/28 07:46:08;;;;;;;9.50;1.02;;;;;;;;;;5031896;28;20060;-92
2022/04/28 07:48:34;;;;;;;9.80;0.85;;;;;;;;;;5014000;28;20566;-92
2022/04/28 07:51:00;;;;;;;7.63;0.80;;;;;;;;;;5026904;28;20057;-90
2022/04/28 07:53:45;;;;;;;4.38;0.45;;;;;;;;;;5017939;28;20091;-91
2022/04/28 07:56:15;;;;;;;4.43;0.77;;;;;;;;;;5036219;28;20037;-92
2022/04/28 07:58:45;;;;;;;6.93;0.55;;;;;;;;;;5004344;28;20064;-91
2022/04/28 08:01:12;;;;;;;7.03;0.60;;;;;;;;;;5021063;28;20037;-92
2022/04/28 08:03:46;;;;;;;8.90;0.57;;;;;;;;;;5034964;28;20033;-94
2022/04/28 08:06:13;;;;;;;9.25;0.80;;;;;;;;;;5014094;28;20484;-95
2022/04/28 08:08:40;;;;;;;7.68;0.68;;;;;;;;;;5007481;28;20034;-93
2022/04/28 08:11:21;;;;;;;8.85;0.85;;;;;;;;;;4999374;28;20113;-92
2022/04/28 08:13:49;;;;;;;7.68;0.40;;;;;;;;;;5013973;28;20480;-92
2022/04/28 08:16:30;;;;;;;4.30;0.57;;;;;;;;;;5014978;28;20055;-90
2022/04/28 08:18:56;;;;;;;6.25;0.50;;;;;;;;;;5034445;28;20120;-93
2022/04/28 08:21:26;;;;;;;5.63;0.57;;;;;;;;;;5034605;28;20083;-92
2022/04/28 08:23:53;;;;;;;7.10;0.60;;;;;;;;;;5033231;28;20129;-92
2022/04/28 08:26:24;;;;;;;7.07;0.55;;;;;;;;;;5032341;28;20613;-92
2022/04/28 08:28:51;;;;;;;7.40;0.77;;;;;;;;;;5030671;28;20392;-90
2022/04/28 08:31:17;;;;;;;8.38;0.70;;;;;;;;;;5034672;28;20053;-92
2022/04/28 08:33:43;;;;;;;8.50;0.30;;;;;;;;;;5029818;28;20044;-92
2022/04/28 08:36:12;;;;;;;10.52;0.90;;;;;;;;;;5032968;28;20041;-91
2022/04/28 08:38:39;;;;;;;3.83;0.38;;;;;;;;;;5033127;28;20042;-93
2022/04/28 08:41:24;;;;;;;5.15;0.50;;;;;;;;;;5030375;28;20032;-91
2022/04/28 08:43:50;;;;;;;9.23;0.55;;;;;;;;;;5029853;28;20064;-92
2022/04/28 08:49:15;;;;;;;5.90;0.57;;;;;;;;;;5032131;28;20041;-92
2022/04/28 08:51:43;;;;;;;5.93;0.70;;;;;;;;;;5015894;28;20095;-92
2022/04/28 08:54:10;;;;;;;4.32;0.77;;;;;;;;;;5032974;28;20060;-93
2022/04/28 08:56:40;;;;;;;8.25;0.60;;;;;;;;;;5024050;28;20042;-92
2022/04/28 08:59:07;;;;;;;6.47;0.52;;;;;;;;;;5005092;28;20427;-90
2022/04/28 09:01:33;;;;;;;5.38;0.57;;;;;;;;;;5017021;28;20033;-91
2022/04/28 09:04:04;;;;;;;8.52;0.82;;;;;;;;;;5012980;28;20034;-92
2022/04/28 09:06:36;;;;;;;7.47;0.88;;;;;;;;;;5030865;28;20140;-90
2022/04/28 09:09:08;;;;;;;5.07;0.50;;;;;;;;;;5016987;28;20037;-91
2022/04/28 09:11:37;;;;;;;6.00;0.75;;;;;;;;;;5012545;28;20052;-93
2022/04/28 09:14:09;;;;;;;13.10;0.70;;;;;;;;;;5014673;28;20492;-92
2022/04/28 09:16:43;;;;;;;7.32;0.80;;;;;;;;;;5014778;28;20095;-90
2022/04/28 09:19:12;;;;;;;4.88;0.40;;;;;;;;;;5016242;28;20036;-89
2022/04/28 09:21:39;;;;;;;5.30;0.47;;;;;;;;;;5005211;28;20124;-90
2022/04/28 09:24:23;;;;;;;11.98;0.77;;;;;;;;;;5013214;28;20034;-93
2022/04/28 09:26:50;;;;;;;6.88;0.73;;;;;;;;;;5008226;28;20033;-90
2022/04/28 09:29:18;;;;;;;11.40;1.00;;;;;;;;;;5014682;28;20084;-89
2022/04/28 09:31:45;;;;;;;5.13;0.80;;;;;;;;;;5015900;28;20041;-90
2022/04/28 09:34:13;;;;;;;7.43;0.73;;;;;;;;;;5016733;28;20503;-90
2022/04/28 09:36:43;;;;;;;9.23;0.40;;;;;;;;;;5034006;28;20128;-90
2022/04/28 09:39:13;;;;;;;9.18;0.90;;;;;;;;;;5014254;28;20044;-87
2022/04/28 09:44:24;;;;;;;8.23;0.52;;;;;;;;;;5030979;28;20064;-90
2022/04/28 09:46:52;;;;;;;8.43;0.80;;;;;;;;;;5015889;28;20075;-89
2022/04/28 09:49:20;;;;;;;6.13;0.55;;;;;;;;;;5030224;28;20037;-89
2022/04/28 09:51:46;;;;;;;9.80;0.73;;;;;;;;;;5015040;28;20041;-88
2022/04/28 09:54:14;;;;;;;10.48;0.95;;;;;;;;;;5032462;28;20036;-87
2022/04/28 09:56:42;;;;;;;5.40;0.52;;;;;;;;;;5015372;28;20417;-87
2022/04/28 09:59:10;;;;;;;7.18;0.52;;;;;;;;;;5015275;28;20116;-88
2022/04/28 10:01:38;;;;;;;8.85;0.80;;;;;;;;;;5015622;28;20468;-87
2022/04/28 10:04:05;;;;;;;6.97;0.90;;;;;;;;;;5008213;28;20081;-89
2022/04/28 10:06:35;;;;;;;4.50;0.55;;;;;;;;;;5029631;28;20120;-91
2022/04/28 10:09:12;;;;;;;6.68;0.60;;;;;;;;;;5005627;28;20044;-92
2022/04/28 10:11:43;;;;;;;6.68;0.43;;;;;;;;;;5029550;28;20048;-89
2022/04/28 10:14:26;;;;;;;8.35;0.90;;;;;;;;;;5024174;28;20397;-90
2022/04/28 10:16:54;;;;;;;8.38;0.80;;;;;;;;;;5003975;28;20045;-90
2022/04/28 10:19:23;;;;;;;7.22;0.82;;;;;;;;;;5010029;28;20029;-90
2022/04/28 10:21:52;;;;;;;4.43;0.60;;;;;;;;;;5013193;28;20038;-90
2022/04/28 10:33:10;;;;;;;9.35;0.82;;;;;;;;;;5027248;28;20056;-90
2022/04/28 10:35:39;;;;;;;5.88;0.98;;;;;;;;;;5012303;28;20046;-91
2022/04/28 10:38:12;;;;;;;5.78;0.50;;;;;;;;;;5011580;28;20037;-90
2022/04/28 10:41:00;;;;;;;5.93;0.43;;;;;;;;;;5019293;28;20041;-91
2022/04/28 10:43:28;;;;;;;5.25;0.60;;;;;;;;;;5012245;28;20136;-91
2022/04/28 10:45:57;;;;;;;7.85;0.50;;;;;;;;;;5011194;28;20033;-89
2022/04/28 10:48:35;;;;;;;4.20;0.47;;;;;;;;;;5016477;28;20033;-89
2022/04/28 10:51:06;;;;;;;5.05;0.73;;;;;;;;;;5008504;28;20120;-91
2022/04/28 10:57:07;;;;;;;8.38;0.93;;;;;;;;;;4990977;28;20042;-90
2022/04/28 10:59:35;;;;;;;6.75;0.60;;;;;;;;;;4975006;28;20042;-90
2022/04/28 11:02:15;;;;;;;6.13;1.15;;;;;;;;;;4971695;28;20058;-90
2022/04/28 11:05:08;;;;;;;6.60;0.65;;;;;;;;;;4984098;28;20042;-91
2022/04/28 11:07:34;;;;;;;7.35;0.65;;;;;;;;;;4989548;28;20067;-90
2022/04/28 11:10:01;;;;;;;9.68;0.95;;;;;;;;;;5013634;28;20083;-91
2022/04/28 11:12:36;;;;;;;10.73;0.60;;;;;;;;;;5014237;28;20099;-91
2022/04/28 11:15:09;;;;;;;10.27;1.13;;;;;;;;;;5016270;28;20052;-90
2022/04/28 11:17:37;;;;;;;5.30;0.60;;;;;;;;;;5014754;28;20068;-91
2022/04/28 11:20:12;;;;;;;4.60;0.70;;;;;;;;;;5014476;28;20037;-91
2022/04/28 11:22:52;;;;;;;6.18;0.70;;;;;;;;;;5009247;28;20034;-92
2022/04/28 11:25:19;;;;;;;6.32;0.57;;;;;;;;;;5028594;28;20500;-91
2022/04/28 11:27:54;;;;;;;8.48;0.80;;;;;;;;;;5024520;28;20037;-91
2022/04/28 11:30:22;;;;;;;8.38;0.60;;;;;;;;;;5013814;28;20128;-90
2022/04/28 11:32:56;;;;;;;9.32;0.60;;;;;;;;;;5024293;28;20038;-91
2022/04/28 11:35:23;;;;;;;7.68;0.70;;;;;;;;;;5014024;28;20049;-90
2022/04/28 11:37:56;;;;;;;8.48;0.70;;;;;;;;;;5030709;28;20038;-91
2022/04/28 11:40:24;;;;;;;6.25;0.82;;;;;;;;;;5014824;28;20029;-91
2022/04/28 11:43:00;;;;;;;13.00;0.93;;;;;;;;;;5011309;28;20120;-91
2022/04/28 11:45:29;;;;;;;7.10;0.50;;;;;;;;;;5013405;28;20495;-90
2022/04/28 11:48:03;;;;;;;7.70;0.60;;;;;;;;;;5027801;28;20472;-88
2022/04/28 11:50:34;;;;;;;6.15;0.60;;;;;;;;;;5029149;28;20064;-93
2022/04/28 11:53:03;;;;;;;11.60;0.73;;;;;;;;;;5018766;28;20030;-92
2022/04/28 11:55:31;;;;;;;8.82;0.60;;;;;;;;;;5013654;28;20493;-93
2022/04/28 11:58:00;;;;;;;7.53;1.58;;;;;;;;;;5029464;28;20037;-93
2022/04/28 12:00:27;;;;;;;10.48;1.33;;;;;;;;;;5018991;28;20388;-93
2022/04/28 12:03:01;;;;;;;7.75;1.27;;;;;;;;;;5015535;28;20029;-92
2022/04/28 12:05:30;;;;;;;14.13;3.55;;;;;;;;;;5019007;28;20034;-92
2022/04/28 12:08:01;;;;;;;22.85;8.95;;;;;;;;;;5030245;28;20057;-93
2022/04/28 12:16:12;;;;;;;19.02;6.47;;;;;;;;;;5035745;28;20045;-93
2022/04/28 12:21:32;;;;;;;5.53;0.90;;;;;;;;;;5035911;28;20048;-90
2022/04/28 12:24:00;;;;;;;7.95;0.80;;;;;;;;;;5025693;28;20053;-91
2022/04/28 12:26:31;;;;;;;7.20;0.73;;;;;;;;;;5032656;28;20040;-91
2022/04/28 12:29:10;;;;;;;9.82;1.95;;;;;;;;;;5025944;28;20034;-92
2022/04/28 12:31:36;;;;;;;6.90;0.80;;;;;;;;;;5032059;28;20034;-90
2022/04/28 12:34:20;;;;;;;9.60;2.30;;;;;;;;;;5017184;28;20044;-90
2022/04/28 12:37:00;;;;;;;8.13;2.78;;;;;;;;;;5031261;28;20105;-89
2022/04/28 12:39:27;;;;;;;8.80;1.30;;;;;;;;;;5013748;28;20069;-90
2022/04/28 12:41:53;;;;;;;5.10;1.08;;;;;;;;;;5010325;28;20140;-89
2022/04/28 12:44:22;;;;;;;9.88;1.55;;;;;;;;;;5032262;28;20029;-91
2022/04/28 12:47:12;;;;;;;4.88;0.70;;;;;;;;;;5017344;28;20124;-88
2022/04/28 12:49:46;;;;;;;10.00;1.50;;;;;;;;;;5008429;28;20048;-90
2022/04/28 12:52:30;;;;;;;7.47;0.77;;;;;;;;;;5018866;28;20079;-89
2022/04/28 12:55:06;;;;;;;7.47;1.23;;;;;;;;;;5010803;28;20068;-87
2022/04/28 12:57:45;;;;;;;6.50;0.70;;;;;;;;;;5020732;28;20577;-92
2022/04/28 13:00:13;;;;;;;6.22;0.65;;;;;;;;;;5032766;28;20037;-92
2022/04/28 13:02:43;;;;;;;4.82;0.90;;;;;;;;;;5024807;28;20033;-92
2022/04/28 13:05:12;;;;;;;5.65;0.80;;;;;;;;;;5016180;28;20030;-90
2022/04/28 13:07:40;;;;;;;5.85;1.13;;;;;;;;;;5015974;28;20038;-92
2022/04/28 13:12:41;;;;;;;7.05;1.70;;;;;;;;;;5030492;28;20290;-90
2022/04/28 13:15:08;;;;;;;8.88;1.20;;;;;;;;;;5016475;28;20029;-91
2022/04/28 13:17:39;;;;;;;7.03;1.52;;;;;;;;;;5016326;28;20180;-91
2022/04/28 13:20:06;;;;;;;11.60;2.70;;;;;;;;;;5010471;28;20091;-93
2022/04/28 13:22:34;;;;;;;10.73;2.67;;;;;;;;;;5019685;28;20069;-93
2022/04/28 13:25:01;;;;;;;12.40;2.35;;;;;;;;;;5026679;28;20032;-90
2022/04/28 13:27:28;;;;;;;9.77;2.28;;;;;;;;;;5013886;28;20037;-92
2022/04/28 13:29:54;;;;;;;9.40;1.55;;;;;;;;;;5008538;28;20070;-90
2022/04/28 13:32:29;;;;;;;15.55;2.22;;;;;;;;;;5026914;28;20041;-91
2022/04/28 13:34:58;;;;;;;6.07;1.58;;;;;;;;;;5025271;28;20105;-89
2022/04/28 13:37:24;;;;;;;7.07;1.27;;;;;;;;;;5031553;28;20157;-91
2022/04/28 13:39:50;;;;;;;11.77;1.42;;;;;;;;;;5012214;28;20046;-91
2022/04/28 13:42:18;;;;;;;10.63;1.67;;;;;;;;;;5031668;28;20120;-91
2022/04/28 13:44:45;;;;;;;8.23;1.65;;;;;;;;;;5015787;28;20034;-91
2022/04/28 13:47:17;;;;;;;9.45;1.98;;;;;;;;;;5014300;28;20046;-90
2022/04/28 13:49:44;;;;;;;12.70;3.20;;;;;;;;;;5013629;28;20034;-91
2022/04/28 13:52:13;;;;;;;17.85;3.15;;;;;;;;;;5010170;28;20175;-91
2022/04/28 13:54:40;;;;;;;13.30;3.80;;;;;;;;;;4673347;28;10000309;-91
2022/04/28 13:57:18;;;;;;;10.80;4.25;;;;;;;;;;5014446;28;20434;-90
2022/04/28 13:59:56;;;;;;;14.02;4.10;;;;;;;;;;5015585;28;20460;-92
2022/04/28 14:02:22;;;;;;;13.63;4.22;;;;;;;;;;5031039;28;20029;-91
2022/04/28 14:04:49;;;;;;;11.77;3.65;;;;;;;;;;5013929;28;20045;-91
2022/04/28 14:07:16;;;;;;;8.63;2.95;;;;;;;;;;5011206;28;20881;-92
2022/04/28 14:09:43;;;;;;;11.45;3.13;;;;;;;;;;5022981;28;20033;-90
2022/04/28 14:12:12;;;;;;;10.93;3.25;;;;;;;;;;5015605;28;20060;-89
2022/04/28 14:14:40;;;;;;;13.27;4.13;;;;;;;;;;5004682;28;20037;-90
2022/04/28 14:17:19;;;;;;;11.98;2.92;;;;;;;;;;5013867;28;20042;-89
2022/04/28 14:19:45;;;;;;;14.20;4.03;;;;;;;;;;5013744;28;20053;-90
2022/04/28 14:22:17;;;;;;;10.63;3.28;;;;;;;;;;5004672;28;20025;-90
2022/04/28 14:24:46;;;;;;;12.05;2.28;;;;;;;;;;5014251;28;20041;-89
2022/04/28 14:27:13;;;;;;;10.45;2.80;;;;;;;;;;5015245;28;20544;-90
2022/04/28 14:29:40;;;;;;;11.73;2.08;;;;;;;;;;5015643;28;20052;-89
2022/04/28 14:32:06;;;;;;;8.48;2.25;;;;;;;;;;5015081;28;20073;-89
2022/04/28 14:34:35;;;;;;;10.35;1.83;;;;;;;;;;5010904;28;20116;-89
2022/04/28 14:37:03;;;;;;;9.02;2.65;;;;;;;;;;5030600;28;20136;-88
2022/04/28 14:39:31;;;;;;;11.15;2.58;;;;;;;;;;5014564;28;20050;-89
2022/04/28 14:41:57;;;;;;;12.27;3.60;;;;;;;;;;5017034;28;20041;-89
2022/04/28 14:44:26;;;;;;;17.10;7.57;;;;;;;;;;5031862;28;20041;-89
2022/04/28 14:46:52;;;;;;;25.90;11.95;;;;;;;;;;5014948;28;20080;-89
2022/04/28 14:52:26;;;;;;;13.10;7.47;;;;;;;;;;5032392;28;20120;-91
2022/04/28 14:55:30;;;;;;;11.77;5.78;;;;;;;;;;5015387;28;20385;-89
2022/04/28 14:58:06;;;;;;;17.05;5.70;;;;;;;;;;5009665;28;20037;-90
2022/04/28 15:00:33;;;;;;;15.73;4.82;;;;;;;;;;5015915;28;20554;-90
2022/04/28 15:02:59;;;;;;;12.18;3.95;;;;;;;;;;5010505;28;20053;-91
2022/04/28 15:05:26;;;;;;;6.68;3.10;;;;;;;;;;5015268;28;20125;-89
2022/04/28 15:07:54;;;;;;;10.45;3.40;;;;;;;;;;5025813;28;20087;-88
2022/04/28 15:10:21;;;;;;;15.27;4.05;;;;;;;;;;5014010;28;20400;-90
2022/04/28 15:12:48;;;;;;;12.13;3.22;;;;;;;;;;5029149;28;20072;-88
2022/04/28 15:15:17;;;;;;;9.43;4.07;;;;;;;;;;5026373;28;20069;-90
2022/04/28 15:17:44;;;;;;;11.57;2.85;;;;;;;;;;5023623;28;20034;-92
2022/04/28 15:20:26;;;;;;;9.07;2.60;;;;;;;;;;5031140;28;20092;-91
2022/04/28 15:22:52;;;;;;;12.30;2.60;;;;;;;;;;5013511;28;20033;-92
2022/04/28 15:25:19;;;;;;;8.32;2.28;;;;;;;;;;5021269;28;20042;-91
2022/04/28 15:27:46;;;;;;;9.07;2.53;;;;;;;;;;5009320;28;20033;-90
2022/04/28 15:30:19;;;;;;;7.95;2.53;;;;;;;;;;5005431;28;20083;-91
2022/04/28 15:32:46;;;;;;;6.22;1.92;;;;;;;;;;5011455;28;20042;-90
2022/04/28 15:35:13;;;;;;;6.95;1.85;;;;;;;;;;5032503;28;20057;-91
2022/04/28 15:37:40;;;;;;;7.15;1.75;;;;;;;;;;5012891;28;20034;-92
2022/04/28 15:40:10;;;;;;;5.10;2.05;;;;;;;;;;5016992;28;20111;-91
2022/04/28 15:42:37;;;;;;;10.27;2.25;;;;;;;;;;5019285;28;20049;-89
2022/04/28 15:45:05;;;;;;;10.23;1.60;;;;;;;;;;5035683;28;20416;-88
2022/04/28 15:47:31;;;;;;;7.35;1.73;;;;;;;;;;5035534;28;20556;-90
2022/04/28 15:50:05;;;;;;;6.05;1.40;;;;;;;;;;5026057;28;20398;-89
2022/04/28 15:52:32;;;;;;;5.82;1.65;;;;;;;;;;5017208;28;20124;-90
2022/04/28 15:55:24;;;;;;;4.15;1.40;;;;;;;;;;5019667;28;20051;-88
2022/04/28 15:57:51;;;;;;;7.43;1.42;;;;;;;;;;5005817;28;20128;-89
2022/04/28 16:00:30;;;;;;;5.63;1.17;;;;;;;;;;5029251;28;20033;-90
2022/04/28 16:02:57;;;;;;;4.60;1.38;;;;;;;;;;5017403;28;20068;-89
2022/04/28 16:05:49;;;;;;;8.07;1.40;;;;;;;;;;5007732;28;20062;-88
2022/04/28 16:08:15;;;;;;;5.07;1.48;;;;;;;;;;5024709;28;20029;-90
2022/04/28 16:10:41;;;;;;;4.25;0.93;;;;;;;;;;5019424;28;20033;-89
2022/04/28 16:13:26;;;;;;;6.45;1.10;;;;;;;;;;5010818;28;20030;-90
2022/04/28 16:15:52;;;;;;;3.70;0.80;;;;;;;;;;5029852;28;20091;-89
2022/04/28 16:18:37;;;;;;;6.30;1.50;;;;;;;;;;5008799;28;20037;-89
2022/04/28 16:21:04;;;;;;;7.28;1.05;;;;;;;;;;5013776;28;20026;-89
2022/04/28 16:23:52;;;;;;;6.68;0.90;;;;;;;;;;5018845;28;20025;-89
2022/04/28 16:26:19;;;;;;;12.13;1.98;;;;;;;;;;5014918;28;20163;-94
2022/04/28 16:28:53;;;;;;;9.60;1.23;;;;;;;;;;5018638;28;20528;-92
2022/04/28 16:31:20;;;;;;;10.15;1.45;;;;;;;;;;5017428;28;20044;-90
2022/04/28 16:33:50;;;;;;;9.80;1.65;;;;;;;;;;5010620;28;20476;-91
2022/04/28 16:36:16;;;;;;;10.20;1.63;;;;;;;;;;5017781;28;20034;-90
2022/04/28 16:39:05;;;;;;;8.70;1.13;;;;;;;;;;5018090;28;20487;-91
2022/04/28 16:41:33;;;;;;;7.45;1.27;;;;;;;;;;5012922;28;20504;-88
2022/04/28 16:44:17;;;;;;;6.43;1.13;;;;;;;;;;5012766;28;20053;-90
2022/04/28 16:46:44;;;;;;;9.52;1.23;;;;;;;;;;5027325;28;20493;-90
2022/04/28 16:49:15;;;;;;;9.63;1.73;;;;;;;;;;5034544;28;20029;-89
2022/04/28 16:51:41;;;;;;;6.72;1.58;;;;;;;;;;5033884;28;20045;-90
2022/04/28 16:54:27;;;;;;;8.60;1.60;;;;;;;;;;5017783;28;20044;-90
2022/04/28 16:56:53;;;;;;;10.63;2.05;;;;;;;;;;5018022;28;20136;-90
2022/04/28 17:01:45;;;;;;;6.53;1.50;;;;;;;;;;5026873;28;20034;-90
2022/04/28 17:04:18;;;;;;;11.63;1.83;;;;;;;;;;5032162;28;20053;-90
2022/04/28 17:06:46;;;;;;;6.95;1.20;;;;;;;;;;5017043;28;20045;-89
2022/04/28 17:09:16;;;;;;;5.55;1.25;;;;;;;;;;5017328;28;20112;-89
2022/04/28 17:11:42;;;;;;;4.68;1.40;;;;;;;;;;5014634;28;20044;-90
2022/04/28 17:14:10;;;;;;;6.63;1.10;;;;;;;;;;5016237;28;20468;-90
2022/04/28 17:16:38;;;;;;;6.20;1.23;;;;;;;;;;4667363;28;9999653;-90
2022/04/28 17:19:30;;;;;;;8.13;1.30;;;;;;;;;;5013776;28;20049;-89
2022/04/28 17:22:05;;;;;;;11.00;1.73;;;;;;;;;;5029357;28;20116;-89
2022/04/28 17:24:32;;;;;;;10.50;1.83;;;;;;;;;;5009672;28;20030;-89